createdAt,value
2023-03-31T00:02:14.040Z,97043.41
2023-03-31T00:04:46.700Z,97042.19
2023-03-31T00:07:22.498Z,97047.19
2023-03-31T00:10:10.309Z,97042.63
2023-03-31T00:12:48.806Z,97044.66
2023-03-31T00:15:19.388Z,97044.63
2023-03-31T00:17:50.163Z,97045.81
2023-03-31T00:20:20.833Z,97045.47
2023-03-31T00:22:54.829Z,97032.13
2023-03-31T00:25:28.015Z,97031.56
2023-03-31T00:27:58.989Z,97027.06
2023-03-31T00:30:31.136Z,97019.56
2023-03-31T00:33:02.834Z,97013.25
2023-03-31T00:35:33.446Z,97003.38
2023-03-31T00:38:04.081Z,97009.16
2023-03-31T00:40:37.187Z,97000.53
2023-03-31T00:43:31.256Z,96989.47
2023-03-31T00:46:13.990Z,96991.31
2023-03-31T00:48:51.755Z,96982.44
2023-03-31T00:51:25.538Z,96976.69
2023-03-31T00:54:02.177Z,96979.19
2023-03-31T00:56:39.615Z,96967.06
2023-03-31T00:59:15.050Z,96955.78
2023-03-31T01:01:50.749Z,96955.28
2023-03-31T01:04:22.915Z,96951.78
2023-03-31T01:07:05.675Z,96943.97
2023-03-31T01:09:38.953Z,96945.69
2023-03-31T01:12:14.500Z,96942.69
2023-03-31T01:14:45.555Z,96931.63
2023-03-31T01:17:19.494Z,96937.88
2023-03-31T01:20:14.419Z,96926.00
2023-03-31T01:23:28.622Z,96923.50
2023-03-31T01:26:42.234Z,96922.53
2023-03-31T01:29:40.651Z,96930.53
2023-03-31T01:32:45.771Z,96917.50
2023-03-31T01:36:20.335Z,96909.19
2023-03-31T01:39:20.502Z,96904.66
2023-03-31T01:42:01.825Z,96902.84
2023-03-31T01:44:39.249Z,96892.25
2023-03-31T01:47:18.495Z,96895.81
2023-03-31T01:49:59.268Z,96890.03
2023-03-31T01:52:41.551Z,96892.53
2023-03-31T01:55:16.883Z,96891.53
2023-03-31T01:57:56.610Z,96889.06
2023-03-31T02:00:33.628Z,96879.25
2023-03-31T02:03:17.339Z,96877.97
2023-03-31T02:05:53.313Z,96876.72
2023-03-31T02:08:29.285Z,96875.00
2023-03-31T02:11:03.036Z,96866.34
2023-03-31T02:13:38.155Z,96869.38
2023-03-31T02:16:15.817Z,96874.91
2023-03-31T02:18:50.536Z,96880.94
2023-03-31T02:21:23.034Z,96882.91
2023-03-31T02:23:55.408Z,96866.53
2023-03-31T02:26:31.985Z,96867.31
2023-03-31T02:29:06.923Z,96859.28
2023-03-31T02:31:45.812Z,96865.31
2023-03-31T02:34:16.435Z,96857.25
2023-03-31T02:36:48.425Z,96853.75
2023-03-31T02:39:25.149Z,96843.72
2023-03-31T02:41:58.789Z,96837.91
2023-03-31T02:44:34.972Z,96840.69
2023-03-31T02:47:06.644Z,96843.19
2023-03-31T02:49:38.716Z,96839.16
2023-03-31T02:52:48.523Z,96835.41
2023-03-31T02:55:37.805Z,96836.19
2023-03-31T02:58:52.697Z,96827.13
2023-03-31T03:01:43.303Z,96818.81
2023-03-31T03:04:35.006Z,96810.50
2023-03-31T03:07:16.428Z,96807.50
2023-03-31T03:10:01.182Z,96810.00
2023-03-31T03:12:38.681Z,96805.47
2023-03-31T03:15:14.359Z,96799.19
2023-03-31T03:17:49.923Z,96797.44
2023-03-31T03:20:23.918Z,96800.22
2023-03-31T03:22:54.468Z,96798.19
2023-03-31T03:25:25.030Z,96793.91
2023-03-31T03:27:56.007Z,96770.50
2023-03-31T03:30:26.540Z,96777.03
2023-03-31T03:32:59.615Z,96782.28
2023-03-31T03:35:30.260Z,96777.03
2023-03-31T03:38:00.783Z,96762.41
2023-03-31T03:40:31.292Z,96767.19
2023-03-31T03:43:01.841Z,96756.63
2023-03-31T03:45:34.346Z,96756.88
2023-03-31T03:48:07.802Z,96761.47
2023-03-31T03:50:41.500Z,96759.44
2023-03-31T03:53:11.929Z,96757.16
2023-03-31T03:55:42.479Z,96754.88
2023-03-31T03:58:13.975Z,96746.56
2023-03-31T04:00:45.587Z,96745.06
2023-03-31T04:03:19.178Z,96737.00
2023-03-31T04:05:52.060Z,96732.72
2023-03-31T04:08:23.079Z,96732.22
2023-03-31T04:10:53.495Z,96740.78
2023-03-31T04:13:24.197Z,96739.06
2023-03-31T04:15:54.813Z,96726.47
2023-03-31T04:18:28.020Z,96730.75
2023-03-31T04:21:04.380Z,96715.63
2023-03-31T04:23:35.276Z,96718.13
2023-03-31T04:26:09.023Z,96709.84
2023-03-31T04:28:43.002Z,96701.78
2023-03-31T04:31:15.722Z,96711.59
2023-03-31T04:33:50.898Z,96709.34
2023-03-31T04:36:21.395Z,96708.34
2023-03-31T04:38:55.056Z,96705.81
2023-03-31T04:41:27.736Z,96702.53
2023-03-31T04:43:58.265Z,96707.31
2023-03-31T04:46:28.852Z,96697.25
2023-03-31T04:49:03.061Z,96687.38
2023-03-31T04:51:33.517Z,96683.63
2023-03-31T04:54:04.012Z,96676.06
2023-03-31T04:56:34.676Z,96677.56
2023-03-31T04:59:05.455Z,96671.53
2023-03-31T05:01:36.765Z,96661.16
2023-03-31T05:04:10.127Z,96655.91
2023-03-31T05:06:40.591Z,96659.94
2023-03-31T05:09:11.498Z,96656.66
2023-03-31T05:11:42.834Z,96649.84
2023-03-31T05:14:14.824Z,96649.13
2023-03-31T05:16:45.391Z,96652.16
2023-03-31T05:19:18.483Z,96636.50
2023-03-31T05:21:49.214Z,96630.47
2023-03-31T05:24:20.377Z,96631.22
2023-03-31T05:26:53.032Z,96628.94
2023-03-31T05:29:23.971Z,96612.28
2023-03-31T05:31:55.473Z,96612.00
2023-03-31T05:34:28.688Z,96587.28
2023-03-31T05:36:59.225Z,96581.97
2023-03-31T05:39:33.174Z,96574.16
2023-03-31T05:42:05.819Z,96569.09
2023-03-31T05:44:36.315Z,96568.59
2023-03-31T05:47:07.234Z,96566.78
2023-03-31T05:49:40.544Z,96568.03
2023-03-31T05:52:11.870Z,96556.19
2023-03-31T05:54:43.044Z,96561.13
2023-03-31T05:57:14.034Z,96546.44
2023-03-31T05:59:44.278Z,96549.69
2023-03-31T06:02:17.369Z,96548.38
2023-03-31T06:04:50.508Z,96550.81
2023-03-31T06:07:22.754Z,96534.16
2023-03-31T06:09:53.303Z,96535.44
2023-03-31T06:12:23.905Z,96532.59
2023-03-31T06:14:54.438Z,96528.53
2023-03-31T06:17:25.018Z,96528.09
2023-03-31T06:20:02.935Z,96527.75
2023-03-31T06:22:36.269Z,96525.97
2023-03-31T06:25:07.426Z,96532.81
2023-03-31T06:27:37.900Z,96531.06
2023-03-31T06:30:10.624Z,96525.31
2023-03-31T06:32:41.183Z,96526.97
2023-03-31T06:35:14.430Z,96534.75
2023-03-31T06:37:45.039Z,96524.25
2023-03-31T06:40:16.424Z,96527.81
2023-03-31T06:42:47.012Z,96523.47
2023-03-31T06:45:17.534Z,96523.34
2023-03-31T06:47:48.259Z,96522.75
2023-03-31T06:50:21.611Z,96514.56
2023-03-31T06:52:53.315Z,96514.91
2023-03-31T06:55:23.814Z,96508.63
2023-03-31T06:57:54.228Z,96504.28
2023-03-31T07:00:27.251Z,96508.38
2023-03-31T07:02:57.922Z,96504.81
2023-03-31T07:05:31.594Z,96494.84
2023-03-31T07:08:03.361Z,96494.63
2023-03-31T07:10:35.745Z,96488.03
2023-03-31T07:13:06.454Z,96483.41
2023-03-31T07:15:37.120Z,96474.13
2023-03-31T07:18:08.029Z,96464.22
2023-03-31T07:20:41.405Z,96477.88
2023-03-31T07:23:12.582Z,96461.16
2023-03-31T07:25:43.047Z,96457.41
2023-03-31T07:28:14.025Z,96454.56
2023-03-31T07:30:44.985Z,96453.09
2023-03-31T07:33:16.179Z,96454.53
2023-03-31T07:35:56.830Z,96464.22
2023-03-31T07:38:38.764Z,96477.28
2023-03-31T07:41:10.206Z,96477.22
2023-03-31T07:43:40.905Z,96455.38
2023-03-31T07:46:19.427Z,96462.34
2023-03-31T07:48:50.691Z,96474.88
2023-03-31T07:51:27.428Z,96463.22
2023-03-31T07:53:58.202Z,96474.28
2023-03-31T07:56:29.357Z,96467.63
2023-03-31T07:59:00.051Z,96476.19
2023-03-31T08:01:30.499Z,96479.41
2023-03-31T08:04:01.411Z,96477.25
2023-03-31T08:06:34.832Z,96475.94
2023-03-31T08:09:07.333Z,96473.00
2023-03-31T08:11:37.850Z,96469.22
2023-03-31T08:14:08.353Z,96462.69
2023-03-31T08:16:38.928Z,96461.69
2023-03-31T08:19:09.793Z,96447.00
2023-03-31T08:21:42.825Z,96456.63
2023-03-31T08:24:13.331Z,96446.28
2023-03-31T08:26:44.629Z,96436.09
2023-03-31T08:29:15.355Z,96433.97
2023-03-31T08:31:46.016Z,96432.00
2023-03-31T08:34:16.481Z,96434.53
2023-03-31T08:36:49.544Z,96421.63
2023-03-31T08:39:20.020Z,96422.31
2023-03-31T08:41:58.802Z,96416.28
2023-03-31T08:44:37.191Z,96409.72
2023-03-31T08:47:10.917Z,96404.66
2023-03-31T08:49:46.386Z,96395.34
2023-03-31T08:52:25.369Z,96393.75
2023-03-31T08:55:00.754Z,96386.28
2023-03-31T08:57:44.343Z,96383.00
2023-03-31T09:00:19.890Z,96382.72
2023-03-31T09:02:59.475Z,96374.38
2023-03-31T09:05:59.520Z,96365.25
2023-03-31T09:08:45.470Z,96364.50
2023-03-31T09:11:28.860Z,96358.38
2023-03-31T09:14:19.295Z,96358.56
2023-03-31T09:16:58.233Z,96358.78
2023-03-31T09:19:39.749Z,96352.56
2023-03-31T09:22:18.638Z,96349.00
2023-03-31T09:25:03.077Z,96361.38
2023-03-31T09:27:37.732Z,96354.03
2023-03-31T09:30:18.536Z,96364.44
2023-03-31T09:32:51.514Z,96339.66
2023-03-31T09:35:26.041Z,96332.00
2023-03-31T09:37:57.397Z,96333.50
2023-03-31T09:40:32.199Z,96341.97
2023-03-31T09:43:05.396Z,96344.72
2023-03-31T09:45:37.469Z,96342.00
2023-03-31T09:48:14.705Z,96346.44
2023-03-31T09:50:51.082Z,96336.69
2023-03-31T09:53:31.676Z,96335.66
2023-03-31T09:56:09.497Z,96327.28
2023-03-31T09:58:45.301Z,96318.94
2023-03-31T10:01:18.079Z,96308.03
2023-03-31T10:03:54.080Z,96314.41
2023-03-31T10:06:26.465Z,96297.56
2023-03-31T10:09:00.999Z,96305.59
2023-03-31T10:11:34.782Z,96293.34
2023-03-31T10:14:08.504Z,96289.97
2023-03-31T10:16:50.540Z,96286.19
2023-03-31T10:19:26.645Z,96280.56
2023-03-31T10:22:02.382Z,96278.13
2023-03-31T10:24:42.678Z,96269.75
2023-03-31T10:27:26.003Z,96266.31
2023-03-31T10:29:58.180Z,96269.16
2023-03-31T10:32:32.137Z,96269.00
2023-03-31T10:35:09.880Z,96259.31
2023-03-31T10:37:41.001Z,96252.25
2023-03-31T10:40:18.453Z,96249.75
2023-03-31T10:43:03.009Z,96242.91
2023-03-31T10:45:40.424Z,96242.19
2023-03-31T10:48:22.778Z,96236.97
2023-03-31T10:50:53.553Z,96231.91
2023-03-31T10:53:24.940Z,96218.84
2023-03-31T10:56:12.636Z,96226.75
2023-03-31T10:59:06.045Z,96210.63
2023-03-31T11:01:49.637Z,96215.59
2023-03-31T11:04:44.399Z,96208.09
2023-03-31T11:07:30.663Z,96200.56
2023-03-31T11:10:23.959Z,96203.91
2023-03-31T11:13:02.329Z,96200.50
2023-03-31T11:15:45.952Z,96200.44
2023-03-31T11:18:38.435Z,96190.75
2023-03-31T11:21:23.624Z,96183.47
2023-03-31T11:24:04.282Z,96170.03
2023-03-31T11:26:49.464Z,96169.22
2023-03-31T11:29:36.130Z,96151.94
2023-03-31T11:32:40.560Z,96145.16
2023-03-31T11:35:38.787Z,96143.41
2023-03-31T11:38:36.526Z,96130.69
2023-03-31T11:41:11.665Z,96133.72
2023-03-31T11:43:49.481Z,96121.75
2023-03-31T11:46:26.579Z,96119.72
2023-03-31T11:49:04.199Z,96119.03
2023-03-31T11:51:47.579Z,96112.16
2023-03-31T11:54:25.684Z,96109.56
2023-03-31T11:56:58.411Z,96097.84
2023-03-31T11:59:32.163Z,96097.28
2023-03-31T12:02:12.918Z,96099.50
2023-03-31T12:04:51.795Z,96093.63
2023-03-31T12:07:27.939Z,96091.88
2023-03-31T12:10:07.773Z,96079.97
2023-03-31T12:12:44.387Z,96085.53
2023-03-31T12:15:23.063Z,96081.97
2023-03-31T12:18:02.211Z,96098.94
2023-03-31T12:20:40.932Z,96081.38
2023-03-31T12:23:20.678Z,96074.22
2023-03-31T12:25:57.558Z,96056.47
2023-03-31T12:28:29.889Z,96063.00
2023-03-31T12:31:01.195Z,96067.34
2023-03-31T12:33:36.909Z,96068.63
2023-03-31T12:36:24.455Z,96058.84
2023-03-31T12:39:13.688Z,96049.78
2023-03-31T12:41:50.896Z,96059.00
2023-03-31T12:44:39.137Z,96058.50
2023-03-31T12:47:34.207Z,96057.16
2023-03-31T12:50:44.298Z,96053.78
2023-03-31T12:53:31.569Z,96044.97
2023-03-31T12:56:02.749Z,96043.56
2023-03-31T12:58:51.401Z,96038.88
2023-03-31T13:01:23.398Z,96057.59
2023-03-31T13:03:57.327Z,96043.47
2023-03-31T13:06:55.717Z,96037.53
2023-03-31T13:09:52.356Z,96044.44
2023-03-31T13:12:28.233Z,96027.78
2023-03-31T13:15:02.040Z,96028.09
2023-03-31T13:17:36.035Z,96019.00
2023-03-31T13:20:36.202Z,96018.34
2023-03-31T13:23:10.588Z,96020.94
2023-03-31T13:25:51.533Z,96027.25
2023-03-31T13:28:43.067Z,96034.53
2023-03-31T13:31:16.314Z,96038.88
2023-03-31T13:33:52.143Z,96039.03
2023-03-31T13:37:03.057Z,96045.09
2023-03-31T13:39:59.945Z,96025.22
2023-03-31T13:43:11.495Z,96025.03
2023-03-31T13:45:58.554Z,96023.69
2023-03-31T13:48:42.386Z,96016.84
2023-03-31T13:51:32.762Z,96012.28
2023-03-31T13:54:41.519Z,96008.91
2023-03-31T13:57:52.719Z,95998.16
2023-03-31T14:00:37.936Z,95993.25
2023-03-31T14:03:31.011Z,95984.06
2023-03-31T14:06:08.744Z,95990.28
2023-03-31T14:08:54.536Z,95980.59
2023-03-31T14:11:28.563Z,95988.59
2023-03-31T14:14:08.044Z,95994.13
2023-03-31T14:16:49.102Z,95972.91
2023-03-31T14:19:58.230Z,95965.97
2023-03-31T14:22:46.248Z,95961.91
2023-03-31T14:25:30.174Z,95972.34
2023-03-31T14:28:21.515Z,95957.00
2023-03-31T14:31:05.465Z,95961.16
2023-03-31T14:33:46.920Z,95955.59
2023-03-31T14:36:28.691Z,95963.06
2023-03-31T14:39:06.696Z,95968.25
2023-03-31T14:41:38.178Z,95975.59
2023-03-31T14:44:11.123Z,95969.88
2023-03-31T14:46:42.474Z,95975.22
2023-03-31T14:49:25.564Z,95975.94
2023-03-31T14:51:57.911Z,95967.47
2023-03-31T14:54:28.368Z,95969.56
2023-03-31T14:57:03.282Z,95958.56
2023-03-31T14:59:37.629Z,95960.78
2023-03-31T15:02:10.174Z,95956.94
2023-03-31T15:04:48.306Z,95963.38
2023-03-31T15:07:20.357Z,95978.06
2023-03-31T15:09:54.258Z,95967.75
2023-03-31T15:12:26.481Z,95960.13
2023-03-31T15:15:01.997Z,95962.66
2023-03-31T15:17:35.503Z,95980.13
2023-03-31T15:20:31.769Z,95965.38
2023-03-31T15:23:25.063Z,95964.69
2023-03-31T15:26:02.121Z,95965.25
2023-03-31T15:28:43.032Z,95963.53
2023-03-31T15:31:13.777Z,95976.97
2023-03-31T15:33:44.434Z,95978.25
2023-03-31T15:36:18.191Z,95964.53
2023-03-31T15:38:48.972Z,95959.53
2023-03-31T15:41:22.460Z,95955.69
2023-03-31T15:44:07.584Z,95955.84
2023-03-31T15:47:01.193Z,95961.47
2023-03-31T15:49:33.101Z,95970.38
2023-03-31T15:52:06.365Z,95957.72
2023-03-31T15:54:40.311Z,95951.72
2023-03-31T15:57:13.786Z,95957.13
2023-03-31T15:59:55.180Z,95952.94
2023-03-31T16:02:29.350Z,95948.03
2023-03-31T16:05:06.167Z,95951.34
2023-03-31T16:07:47.281Z,95949.25
2023-03-31T16:10:23.414Z,95953.59
2023-03-31T16:12:57.820Z,95951.59
2023-03-31T16:15:36.976Z,95957.31
2023-03-31T16:18:13.554Z,95962.97
2023-03-31T16:20:49.801Z,95963.00
2023-03-31T16:23:27.353Z,95974.31
2023-03-31T16:25:58.556Z,95976.78
2023-03-31T16:28:32.284Z,95976.44
2023-03-31T16:31:05.416Z,95964.97
2023-03-31T16:33:59.624Z,95968.09
2023-03-31T16:36:30.216Z,95971.75
2023-03-31T16:39:03.416Z,95962.31
2023-03-31T16:41:34.596Z,95962.53
2023-03-31T16:44:06.548Z,95955.41
2023-03-31T16:46:37.286Z,95960.22
2023-03-31T16:49:10.369Z,95956.25
2023-03-31T16:51:40.923Z,95963.75
2023-03-31T16:54:11.877Z,95962.69
2023-03-31T16:56:42.135Z,95973.34
2023-03-31T16:59:12.557Z,95968.44
2023-03-31T17:01:43.229Z,95969.63
2023-03-31T17:04:16.284Z,95964.56
2023-03-31T17:06:47.738Z,95966.78
2023-03-31T17:09:18.199Z,95966.78
2023-03-31T17:11:49.182Z,95956.56
2023-03-31T17:14:19.335Z,95977.75
2023-03-31T17:16:50.223Z,95964.81
2023-03-31T17:19:23.306Z,95970.59
2023-03-31T17:21:55.291Z,95995.84
2023-03-31T17:24:25.946Z,95981.09
2023-03-31T17:26:56.798Z,95985.00
2023-03-31T17:29:27.487Z,95977.34
2023-03-31T17:31:58.028Z,95983.00
2023-03-31T17:34:31.501Z,95986.16
2023-03-31T17:37:02.682Z,95989.41
2023-03-31T17:39:33.345Z,95984.69
2023-03-31T17:42:04.603Z,95997.06
2023-03-31T17:44:35.186Z,95987.03
2023-03-31T17:47:06.016Z,95992.56
2023-03-31T17:49:39.402Z,95993.78
2023-03-31T17:52:09.959Z,95998.72
2023-03-31T17:54:40.774Z,96011.22
2023-03-31T17:57:11.585Z,96014.13
2023-03-31T17:59:42.378Z,96011.13
2023-03-31T18:02:16.576Z,96016.41
2023-03-31T18:04:49.853Z,96013.66
2023-03-31T18:07:23.404Z,96024.72
2023-03-31T18:09:54.288Z,96015.66
2023-03-31T18:12:25.018Z,96030.16
2023-03-31T18:14:55.706Z,96027.63
2023-03-31T18:17:29.215Z,96034.22
2023-03-31T18:20:04.173Z,96034.31
2023-03-31T18:22:35.822Z,96037.13
2023-03-31T18:25:06.739Z,96033.53
2023-03-31T18:27:37.460Z,96035.63
2023-03-31T18:30:10.109Z,96034.50
2023-03-31T18:32:40.740Z,96037.00
2023-03-31T18:35:14.538Z,96038.75
2023-03-31T18:37:47.451Z,96043.50
2023-03-31T18:40:18.404Z,96049.16
2023-03-31T18:42:49.011Z,96042.56
2023-03-31T18:45:19.788Z,96042.63
2023-03-31T18:47:51.009Z,96042.47
2023-03-31T18:50:24.494Z,96054.56
2023-03-31T18:52:55.040Z,96048.22
2023-03-31T18:55:26.436Z,96046.78
2023-03-31T18:57:57.070Z,96058.22
2023-03-31T19:00:27.607Z,96061.97
2023-03-31T19:02:58.433Z,96073.13
2023-03-31T19:05:33.297Z,96086.75
2023-03-31T19:08:04.863Z,96080.75
2023-03-31T19:10:36.716Z,96082.88
2023-03-31T19:13:07.917Z,96080.63
2023-03-31T19:15:38.922Z,96073.84
2023-03-31T19:18:09.136Z,96074.34
2023-03-31T19:20:42.288Z,96084.56
2023-03-31T19:23:12.847Z,96085.81
2023-03-31T19:25:43.398Z,96081.94
2023-03-31T19:28:18.615Z,96092.06
2023-03-31T19:30:51.986Z,96091.81
2023-03-31T19:33:23.887Z,96090.88
2023-03-31T19:35:58.012Z,96076.84
2023-03-31T19:38:32.296Z,96076.28
2023-03-31T19:41:04.249Z,96084.88
2023-03-31T19:43:35.717Z,96085.88
2023-03-31T19:46:06.706Z,96082.16
2023-03-31T19:48:37.993Z,96081.63
2023-03-31T19:51:14.061Z,96077.13
2023-03-31T19:53:44.625Z,96072.13
2023-03-31T19:56:17.576Z,96074.28
2023-03-31T19:58:50.374Z,96074.94
2023-03-31T20:01:24.051Z,96064.66
2023-03-31T20:03:56.258Z,96061.09
2023-03-31T20:06:32.072Z,96065.94
2023-03-31T20:09:06.475Z,96072.06
2023-03-31T20:11:37.374Z,96061.72
2023-03-31T20:14:08.367Z,96066.25
2023-03-31T20:16:39.016Z,96069.28
2023-03-31T20:19:09.674Z,96069.03
2023-03-31T20:21:43.382Z,96070.53
2023-03-31T20:24:20.852Z,96060.16
2023-03-31T20:26:52.097Z,96062.66
2023-03-31T20:29:24.337Z,96062.94
2023-03-31T20:31:55.638Z,96065.28
2023-03-31T20:34:27.779Z,96061.34
2023-03-31T20:37:00.998Z,96064.88
2023-03-31T20:39:31.539Z,96068.88
2023-03-31T20:42:02.078Z,96069.91
2023-03-31T20:44:32.638Z,96071.91
2023-03-31T20:47:04.120Z,96075.66
2023-03-31T20:49:34.699Z,96074.59
2023-03-31T20:52:08.447Z,96072.66
2023-03-31T20:54:39.270Z,96078.97
2023-03-31T20:57:09.878Z,96078.47
2023-03-31T20:59:40.704Z,96082.22
2023-03-31T21:02:13.413Z,96078.44
2023-03-31T21:04:43.988Z,96080.75
2023-03-31T21:07:17.201Z,96094.81
2023-03-31T21:09:47.965Z,96085.00
2023-03-31T21:12:19.704Z,96092.06
2023-03-31T21:14:50.284Z,96080.78
2023-03-31T21:17:23.583Z,96083.53
2023-03-31T21:19:54.048Z,96087.06
2023-03-31T21:22:27.670Z,96079.00
2023-03-31T21:24:58.298Z,96073.72
2023-03-31T21:27:28.914Z,96082.28
2023-03-31T21:29:59.430Z,96078.78
2023-03-31T21:32:32.791Z,96075.78
2023-03-31T21:35:03.245Z,96074.28
2023-03-31T21:37:36.788Z,96077.75
2023-03-31T21:40:08.705Z,96074.56
2023-03-31T21:42:39.342Z,96069.78
2023-03-31T21:45:12.487Z,96079.13
2023-03-31T21:47:43.137Z,96064.59
2023-03-31T21:50:14.544Z,96083.69
2023-03-31T21:52:47.669Z,96075.69
2023-03-31T21:55:19.195Z,96073.41
2023-03-31T21:57:49.683Z,96078.22
2023-03-31T22:00:20.808Z,96074.47
2023-03-31T22:02:53.827Z,96070.97
2023-03-31T22:05:29.091Z,96068.75
2023-03-31T22:08:02.417Z,96072.97
2023-03-31T22:10:33.075Z,96070.75
2023-03-31T22:13:03.631Z,96075.28
2023-03-31T22:15:34.520Z,96069.25
2023-03-31T22:18:05.058Z,96067.25
2023-03-31T22:20:35.505Z,96063.25
2023-03-31T22:23:09.283Z,96068.47
2023-03-31T22:25:39.754Z,96069.72
2023-03-31T22:28:10.810Z,96069.97
2023-03-31T22:30:41.067Z,96073.75
2023-03-31T22:33:11.526Z,96068.75
2023-03-31T22:35:42.106Z,96070.47
2023-03-31T22:38:16.870Z,96076.25
2023-03-31T22:40:47.378Z,96078.75
2023-03-31T22:43:17.907Z,96086.25
2023-03-31T22:45:48.482Z,96077.75
2023-03-31T22:48:19.649Z,96085.81
2023-03-31T22:50:50.347Z,96081.06
2023-03-31T22:53:23.588Z,96076.00
2023-03-31T22:55:54.759Z,96082.03
2023-03-31T22:58:25.657Z,96086.31
2023-03-31T23:01:00.049Z,96083.81
2023-03-31T23:03:31.000Z,96080.56
2023-03-31T23:06:06.333Z,96086.59
2023-03-31T23:08:39.946Z,96086.81
2023-03-31T23:11:12.717Z,96080.25
2023-03-31T23:13:43.412Z,96089.03
2023-03-31T23:16:19.208Z,96087.56
2023-03-31T23:18:52.042Z,96086.75
2023-03-31T23:21:25.856Z,96094.28
2023-03-31T23:24:01.772Z,96083.00
2023-03-31T23:26:35.491Z,96090.06
2023-03-31T23:29:06.577Z,96082.78
2023-03-31T23:31:37.018Z,96086.28
2023-03-31T23:34:07.401Z,96082.03
2023-03-31T23:36:37.832Z,96088.81
2023-03-31T23:39:11.060Z,96081.50
2023-03-31T23:41:41.467Z,96084.06
2023-03-31T23:44:12.290Z,96085.81
2023-03-31T23:46:44.471Z,96082.53
2023-03-31T23:49:15.502Z,96087.03
2023-03-31T23:51:46.125Z,96085.53
2023-03-31T23:54:19.318Z,96088.81
2023-03-31T23:56:49.813Z,96089.81
2023-03-31T23:59:20.641Z,96086.84
